AAL3013 KLAX-KMIA
Flight info
| Callsign | AAL3013 |
|---|---|
| Flight time | N/A |
| Altitude | 39000 |
| Route | DOTSS2 CLEEE PKE HIDAT KA27O ONM CNX KEBYO HULZE FUZ AEX AWDAD REDFN Q105 BLVNS Y290 DOWRY FROGZ5 |
| Aircraft | B772/H-SDE2E3FGHIJ5LORVWXY/LB1D1 |
Departure
| Time | 2026-05-07 20:00 |
|---|---|
| Airport | Los Angeles International Airport (KLAX) |
Arrival
| Time | N/A |
|---|---|
| Airport | Miami International Airport (KMIA) |
| Time | Latitude | Longitude | Altitude | Speed | Heading |
|---|---|---|---|---|---|
| 2026-05-07 19:17 | 33.94162 | -118.40759 | 97 ft | 0 kts | 83° |
| 2026-05-07 19:44 | 33.94160 | -118.40784 | 96 ft | 3 kts | 83° |
| 2026-05-07 19:45 | 33.94157 | -118.40812 | 95 ft | 3 kts | 89° |
| 2026-05-07 19:45 | 33.94159 | -118.40838 | 95 ft | 3 kts | 123° |
| 2026-05-07 19:45 | 33.94168 | -118.40848 | 96 ft | 0 kts | 172° |
| 2026-05-07 19:49 | 33.94166 | -118.40847 | 96 ft | 1 kts | 172° |
| 2026-05-07 19:49 | 33.94150 | -118.40845 | 98 ft | 2 kts | 172° |
| 2026-05-07 19:49 | 33.94133 | -118.40842 | 97 ft | 3 kts | 172° |
| 2026-05-07 19:50 | 33.94109 | -118.40838 | 98 ft | 4 kts | 173° |
| 2026-05-07 19:50 | 33.94083 | -118.40834 | 98 ft | 4 kts | 173° |
| 2026-05-07 19:50 | 33.94054 | -118.40830 | 98 ft | 4 kts | 173° |
| 2026-05-07 19:50 | 33.94024 | -118.40826 | 98 ft | 5 kts | 173° |
| 2026-05-07 19:51 | 33.93985 | -118.40820 | 99 ft | 6 kts | 173° |
| 2026-05-07 19:51 | 33.93944 | -118.40814 | 99 ft | 6 kts | 173° |
| 2026-05-07 19:51 | 33.93906 | -118.40798 | 98 ft | 6 kts | 146° |
| 2026-05-07 19:51 | 33.93875 | -118.40761 | 99 ft | 7 kts | 138° |
| 2026-05-07 19:52 | 33.93829 | -118.40719 | 100 ft | 10 kts | 131° |
| 2026-05-07 19:52 | 33.93818 | -118.40624 | 99 ft | 13 kts | 84° |
| 2026-05-07 19:52 | 33.93829 | -118.40503 | 100 ft | 16 kts | 84° |
| 2026-05-07 19:52 | 33.93842 | -118.40361 | 100 ft | 18 kts | 84° |
| 2026-05-07 19:53 | 33.93857 | -118.40198 | 100 ft | 21 kts | 82° |
| 2026-05-07 19:53 | 33.93879 | -118.40017 | 101 ft | 23 kts | 82° |
| 2026-05-07 19:53 | 33.93900 | -118.39816 | 103 ft | 26 kts | 83° |
| 2026-05-07 19:53 | 33.93922 | -118.39595 | 99 ft | 27 kts | 83° |
| 2026-05-07 19:54 | 33.93941 | -118.39404 | 101 ft | 15 kts | 84° |
| 2026-05-07 19:54 | 33.93954 | -118.39260 | 99 ft | 19 kts | 84° |
| 2026-05-07 19:54 | 33.93963 | -118.39166 | 100 ft | 0 kts | 81° |
| 2026-05-07 19:55 | 33.93965 | -118.39155 | 101 ft | 0 kts | 81° |
| 2026-05-07 19:55 | 33.93969 | -118.39127 | 100 ft | 9 kts | 81° |
| 2026-05-07 19:56 | 33.93979 | -118.39037 | 98 ft | 14 kts | 82° |
| 2026-05-07 19:56 | 33.93994 | -118.38890 | 98 ft | 20 kts | 83° |
| 2026-05-07 19:56 | 33.94010 | -118.38727 | 100 ft | 20 kts | 83° |
| 2026-05-07 19:56 | 33.94026 | -118.38564 | 102 ft | 20 kts | 83° |
| 2026-05-07 19:57 | 33.94044 | -118.38406 | 101 ft | 15 kts | 82° |
| 2026-05-07 19:57 | 33.94055 | -118.38303 | 101 ft | 12 kts | 82° |
| 2026-05-07 19:57 | 33.94066 | -118.38202 | 99 ft | 12 kts | 83° |
| 2026-05-07 19:57 | 33.94076 | -118.38100 | 98 ft | 12 kts | 83° |
| 2026-05-07 19:58 | 33.94070 | -118.38015 | 97 ft | 9 kts | 129° |
| 2026-05-07 19:58 | 33.94011 | -118.37995 | 98 ft | 9 kts | 174° |
| 2026-05-07 19:58 | 33.93979 | -118.38048 | 98 ft | 7 kts | 261° |
| 2026-05-07 19:58 | 33.93978 | -118.38051 | 98 ft | 0 kts | 261° |
| 2026-05-07 19:59 | 33.93959 | -118.38208 | 101 ft | 51 kts | 262° |
| 2026-05-07 20:00 | 33.93889 | -118.38935 | 100 ft | 122 kts | 263° |
| 2026-05-07 20:00 | 33.93765 | -118.40141 | 317 ft | 158 kts | 262° |
| 2026-05-07 20:00 | 33.93580 | -118.41531 | 815 ft | 179 kts | 259° |
| 2026-05-07 20:00 | 33.93380 | -118.43147 | 1200 ft | 209 kts | 263° |
| 2026-05-07 20:01 | 33.93232 | -118.44905 | 2014 ft | 215 kts | 264° |
| 2026-05-07 20:01 | 33.93048 | -118.46793 | 2158 ft | 237 kts | 255° |
| 2026-05-07 20:01 | 33.92156 | -118.48528 | 2402 ft | 253 kts | 221° |
| 2026-05-07 20:01 | 33.90791 | -118.49850 | 3021 ft | 254 kts | 221° |
| 2026-05-07 20:02 | 33.89930 | -118.50823 | 3369 ft | 260 kts | 226° |
| 2026-05-07 20:02 | 33.88291 | -118.52992 | 4230 ft | 263 kts | 231° |
| 2026-05-07 20:02 | 33.87088 | -118.54661 | 4885 ft | 263 kts | 227° |
| 2026-05-07 20:02 | 33.86121 | -118.55559 | 5164 ft | 270 kts | 206° |
| 2026-05-07 20:03 | 33.84267 | -118.55985 | 5753 ft | 277 kts | 177° |
| 2026-05-07 20:03 | 33.82371 | -118.55537 | 6269 ft | 280 kts | 168° |
| 2026-05-07 20:03 | 33.80453 | -118.55000 | 6837 ft | 284 kts | 168° |
| 2026-05-07 20:03 | 33.78521 | -118.54470 | 7470 ft | 286 kts | 167° |
| 2026-05-07 20:04 | 33.76567 | -118.53937 | 8029 ft | 291 kts | 167° |
| 2026-05-07 20:04 | 33.74587 | -118.53400 | 8657 ft | 292 kts | 167° |
| 2026-05-07 20:04 | 33.72595 | -118.52861 | 9287 ft | 295 kts | 166° |
| 2026-05-07 20:04 | 33.70672 | -118.52070 | 9762 ft | 295 kts | 146° |
| 2026-05-07 20:05 | 33.69261 | -118.50312 | 10224 ft | 297 kts | 118° |
| 2026-05-07 20:05 | 33.68454 | -118.47989 | 10329 ft | 310 kts | 107° |
| 2026-05-07 20:05 | 33.67735 | -118.45466 | 10489 ft | 331 kts | 108° |
| 2026-05-07 20:05 | 33.66957 | -118.42778 | 10728 ft | 348 kts | 108° |
| 2026-05-07 20:06 | 33.66142 | -118.39999 | 11264 ft | 357 kts | 108° |
| 2026-05-07 20:06 | 33.65305 | -118.37169 | 11958 ft | 362 kts | 108° |
| 2026-05-07 20:06 | 33.64510 | -118.34313 | 12699 ft | 358 kts | 102° |
| 2026-05-07 20:06 | 33.64280 | -118.31343 | 13187 ft | 361 kts | 88° |
| 2026-05-07 20:07 | 33.64346 | -118.28306 | 13887 ft | 366 kts | 87° |
| 2026-05-07 20:07 | 33.64396 | -118.25278 | 14661 ft | 368 kts | 88° |
| 2026-05-07 20:07 | 33.64430 | -118.22198 | 15422 ft | 370 kts | 88° |
| 2026-05-07 20:07 | 33.64450 | -118.19089 | 16144 ft | 374 kts | 88° |
| 2026-05-07 20:08 | 33.64461 | -118.15947 | 16865 ft | 378 kts | 88° |
| 2026-05-07 20:08 | 33.64465 | -118.12772 | 17602 ft | 383 kts | 88° |
| 2026-05-07 20:08 | 33.64466 | -118.09578 | 18343 ft | 387 kts | 88° |
| 2026-05-07 20:08 | 33.64464 | -118.06334 | 18993 ft | 391 kts | 88° |
| 2026-05-07 20:09 | 33.64460 | -118.03054 | 19609 ft | 395 kts | 88° |
| 2026-05-07 20:09 | 33.64456 | -117.99743 | 20248 ft | 400 kts | 88° |
| 2026-05-07 20:09 | 33.64450 | -117.96402 | 20887 ft | 404 kts | 88° |
| 2026-05-07 20:10 | 33.64437 | -117.89586 | 22120 ft | 413 kts | 88° |
| 2026-05-07 20:10 | 33.64430 | -117.86118 | 22739 ft | 418 kts | 88° |
| 2026-05-07 20:10 | 33.64421 | -117.82613 | 23365 ft | 422 kts | 88° |
| 2026-05-07 20:10 | 33.64452 | -117.79088 | 23906 ft | 424 kts | 84° |
| 2026-05-07 20:11 | 33.64924 | -117.75590 | 24361 ft | 426 kts | 75° |
| 2026-05-07 20:11 | 33.65644 | -117.72129 | 24844 ft | 429 kts | 73° |
| 2026-05-07 20:11 | 33.66383 | -117.68698 | 25346 ft | 431 kts | 74° |
| 2026-05-07 20:11 | 33.67129 | -117.65152 | 25852 ft | 434 kts | 74° |
| 2026-05-07 20:12 | 33.67837 | -117.61665 | 26309 ft | 437 kts | 75° |
| 2026-05-07 20:12 | 33.68539 | -117.58102 | 26749 ft | 440 kts | 75° |
| 2026-05-07 20:12 | 33.69233 | -117.54506 | 27165 ft | 444 kts | 75° |
| 2026-05-07 20:12 | 33.69926 | -117.50875 | 27577 ft | 447 kts | 75° |
| 2026-05-07 20:13 | 33.70621 | -117.47220 | 27996 ft | 450 kts | 75° |
| 2026-05-07 20:13 | 33.71317 | -117.43550 | 28442 ft | 452 kts | 75° |
| 2026-05-07 20:13 | 33.72017 | -117.39859 | 28849 ft | 454 kts | 75° |
| 2026-05-07 20:13 | 33.72719 | -117.36158 | 29219 ft | 457 kts | 75° |
| 2026-05-07 20:14 | 33.73424 | -117.32436 | 29538 ft | 459 kts | 75° |
| 2026-05-07 20:14 | 33.74136 | -117.28679 | 29889 ft | 462 kts | 75° |
| 2026-05-07 20:14 | 33.74848 | -117.24901 | 30200 ft | 464 kts | 76° |
| 2026-05-07 20:14 | 33.75326 | -117.21055 | 30452 ft | 469 kts | 86° |
| 2026-05-07 20:15 | 33.75250 | -117.17141 | 30710 ft | 471 kts | 91° |
| 2026-05-07 20:15 | 33.75048 | -117.13255 | 30994 ft | 472 kts | 91° |
| 2026-05-07 20:15 | 33.74877 | -117.09256 | 31289 ft | 473 kts | 90° |
| 2026-05-07 20:15 | 33.74762 | -117.05356 | 31524 ft | 474 kts | 89° |
| 2026-05-07 20:16 | 33.74680 | -117.01400 | 31798 ft | 474 kts | 89° |
| 2026-05-07 20:16 | 33.74603 | -116.97451 | 32132 ft | 472 kts | 89° |
| 2026-05-07 20:16 | 33.74522 | -116.93516 | 32485 ft | 470 kts | 89° |
| 2026-05-07 20:16 | 33.74434 | -116.89593 | 32828 ft | 469 kts | 89° |
| 2026-05-07 20:17 | 33.74344 | -116.85683 | 33166 ft | 468 kts | 89° |
| 2026-05-07 20:17 | 33.74252 | -116.81772 | 33495 ft | 466 kts | 89° |